TX70 weather

Eberly Ranch Airport
Chappell Hill, Texas, United States

Public forecast

Using degrees Fahrenheit for public forecast. Weather courtesy of forecast.io.

METAR (pilot weather report)

Closest report is Brenham Municipal Airport, 12.9 nm (23.9 km) NW. Retrieved 2019/07/19 15:35 UTC (0 seconds ago):

K11R 191535Z AUTO 19012KT 10SM SCT023 SCT031 31/24 A3003 RMK AO2 T03110236

TAF (pilot weather forecast)

Closest forecast is Easterwood Field, 33.1 nm (61.3 km) NNW. Retrieved 2019/07/19 12:22 UTC (3 hours ago):

TAF KCLL 191120Z 1912/2012 17003KT P6SM BKN015 FM191400 18007KT P6SM BKN025 FM191700 18008KT P6SM SCT035 FM200900 18005KT P6SM FEW015 SCT028